ITY21D LIRF-LIRQ
Flight info
| Callsign | ITY21D |
|---|---|
| Flight time | N/A |
| Altitude | 24000 |
| Route | SOVAN DCT AMTEL/N0379F180 L995 IBRID |
| Aircraft | A319/M-SDE3FGHIRWY/LB1 |
Departure
| Time | 2026-05-06 10:56 |
|---|---|
| Airport | Rome–Fiumicino Leonardo da Vinci International Airport (LIRF) |
Arrival
| Time | N/A |
|---|---|
| Airport | Florence Airport, Peretola (LIRQ) |
| Time | Latitude | Longitude | Altitude | Speed | Heading |
|---|---|---|---|---|---|
| 2026-05-06 10:45 | 41.79859 | 12.26639 | 15 ft | 0 kts | 250° |
| 2026-05-06 10:45 | 41.79859 | 12.26640 | 15 ft | 0 kts | 250° |
| 2026-05-06 10:50 | 41.79857 | 12.26632 | 16 ft | 2 kts | 250° |
| 2026-05-06 10:51 | 41.79850 | 12.26607 | 16 ft | 4 kts | 249° |
| 2026-05-06 10:51 | 41.79818 | 12.26593 | 15 ft | 8 kts | 174° |
| 2026-05-06 10:51 | 41.79772 | 12.26650 | 15 ft | 12 kts | 95° |
| 2026-05-06 10:51 | 41.79827 | 12.26729 | 15 ft | 15 kts | 352° |
| 2026-05-06 10:52 | 41.79926 | 12.26679 | 15 ft | 15 kts | 338° |
| 2026-05-06 10:52 | 41.80025 | 12.26627 | 15 ft | 16 kts | 340° |
| 2026-05-06 10:52 | 41.80107 | 12.26555 | 15 ft | 14 kts | 269° |
| 2026-05-06 10:52 | 41.80112 | 12.26455 | 16 ft | 10 kts | 340° |
| 2026-05-06 10:53 | 41.80189 | 12.26412 | 15 ft | 13 kts | 340° |
| 2026-05-06 10:53 | 41.80300 | 12.26394 | 16 ft | 19 kts | 343° |
| 2026-05-06 10:53 | 41.80427 | 12.26400 | 15 ft | 19 kts | 48° |
| 2026-05-06 10:53 | 41.80477 | 12.26571 | 17 ft | 21 kts | 70° |
| 2026-05-06 10:54 | 41.80528 | 12.26757 | 15 ft | 21 kts | 70° |
| 2026-05-06 10:54 | 41.80580 | 12.26944 | 16 ft | 22 kts | 69° |
| 2026-05-06 10:54 | 41.80690 | 12.27049 | 15 ft | 21 kts | 6° |
| 2026-05-06 10:54 | 41.80833 | 12.27031 | 15 ft | 21 kts | 341° |
| 2026-05-06 10:55 | 41.80955 | 12.26954 | 13 ft | 16 kts | 301° |
| 2026-05-06 10:55 | 41.80939 | 12.26854 | 14 ft | 16 kts | 250° |
| 2026-05-06 10:55 | 41.80807 | 12.26381 | 18 ft | 93 kts | 251° |
| 2026-05-06 10:55 | 41.80506 | 12.25279 | 16 ft | 155 kts | 249° |
| 2026-05-06 10:56 | 41.80120 | 12.23865 | 501 ft | 165 kts | 245° |
| 2026-05-06 10:56 | 41.79730 | 12.22393 | 1138 ft | 167 kts | 244° |
| 2026-05-06 10:56 | 41.79337 | 12.20932 | 1911 ft | 171 kts | 245° |
| 2026-05-06 10:56 | 41.79291 | 12.19196 | 2273 ft | 206 kts | 279° |
| 2026-05-06 10:57 | 41.80047 | 12.17494 | 2947 ft | 220 kts | 306° |
| 2026-05-06 10:57 | 41.81028 | 12.15932 | 3846 ft | 224 kts | 308° |
| 2026-05-06 10:57 | 41.82408 | 12.14693 | 4307 ft | 255 kts | 330° |
| 2026-05-06 10:57 | 41.84060 | 12.13613 | 4986 ft | 271 kts | 331° |
| 2026-05-06 10:58 | 41.85770 | 12.12512 | 5944 ft | 274 kts | 330° |
| 2026-05-06 10:58 | 41.87500 | 12.11398 | 6904 ft | 277 kts | 330° |
| 2026-05-06 10:58 | 41.89350 | 12.10566 | 7813 ft | 287 kts | 346° |
| 2026-05-06 10:58 | 41.91304 | 12.10118 | 8737 ft | 290 kts | 346° |
| 2026-05-06 10:59 | 41.93339 | 12.09663 | 9675 ft | 295 kts | 346° |
| 2026-05-06 10:59 | 41.95350 | 12.09215 | 10517 ft | 299 kts | 346° |
| 2026-05-06 10:59 | 41.97420 | 12.08751 | 11317 ft | 306 kts | 346° |
| 2026-05-06 10:59 | 41.99622 | 12.08232 | 11652 ft | 328 kts | 343° |
| 2026-05-06 11:00 | 42.01892 | 12.07378 | 11907 ft | 349 kts | 339° |
| 2026-05-06 11:00 | 42.04284 | 12.06356 | 12102 ft | 372 kts | 338° |
| 2026-05-06 11:00 | 42.06807 | 12.05229 | 12285 ft | 391 kts | 338° |
| 2026-05-06 11:00 | 42.09381 | 12.04066 | 12808 ft | 399 kts | 338° |
| 2026-05-06 11:01 | 42.12062 | 12.02859 | 13449 ft | 403 kts | 338° |
| 2026-05-06 11:01 | 42.14736 | 12.01662 | 14082 ft | 407 kts | 338° |
| 2026-05-06 11:01 | 42.17442 | 12.00462 | 14713 ft | 411 kts | 338° |
| 2026-05-06 11:01 | 42.20171 | 11.99267 | 15339 ft | 414 kts | 338° |
| 2026-05-06 11:02 | 42.22830 | 11.97790 | 15908 ft | 414 kts | 331° |
| 2026-05-06 11:02 | 42.25419 | 11.96163 | 16446 ft | 418 kts | 331° |
| 2026-05-06 11:02 | 42.28093 | 11.94454 | 16986 ft | 421 kts | 330° |
| 2026-05-06 11:02 | 42.30742 | 11.92746 | 17503 ft | 424 kts | 330° |
| 2026-05-06 11:03 | 42.33382 | 11.91045 | 18001 ft | 427 kts | 330° |
| 2026-05-06 11:03 | 42.36079 | 11.89306 | 18479 ft | 430 kts | 330° |
| 2026-05-06 11:03 | 42.38826 | 11.87537 | 18918 ft | 433 kts | 330° |
| 2026-05-06 11:03 | 42.41555 | 11.85786 | 19363 ft | 435 kts | 330° |
| 2026-05-06 11:04 | 42.44269 | 11.84048 | 19801 ft | 438 kts | 330° |
| 2026-05-06 11:04 | 42.47024 | 11.82278 | 20232 ft | 440 kts | 330° |
| 2026-05-06 11:04 | 42.49802 | 11.80490 | 20658 ft | 442 kts | 330° |
| 2026-05-06 11:04 | 42.52592 | 11.78692 | 21054 ft | 445 kts | 330° |
| 2026-05-06 11:05 | 42.55394 | 11.76890 | 21454 ft | 447 kts | 330° |
| 2026-05-06 11:05 | 42.58211 | 11.75077 | 21845 ft | 449 kts | 330° |
| 2026-05-06 11:05 | 42.61040 | 11.73252 | 21978 ft | 453 kts | 330° |
| 2026-05-06 11:05 | 42.63913 | 11.71397 | 21999 ft | 459 kts | 330° |
| 2026-05-06 11:06 | 42.66808 | 11.69528 | 21997 ft | 461 kts | 330° |
| 2026-05-06 11:06 | 42.69712 | 11.67651 | 21995 ft | 462 kts | 330° |
| 2026-05-06 11:06 | 42.72613 | 11.65769 | 21994 ft | 462 kts | 330° |
| 2026-05-06 11:06 | 42.75516 | 11.63886 | 21994 ft | 462 kts | 330° |
| 2026-05-06 11:07 | 42.78427 | 11.61993 | 21992 ft | 462 kts | 330° |
| 2026-05-06 11:07 | 42.81325 | 11.60106 | 21988 ft | 462 kts | 330° |
| 2026-05-06 11:07 | 42.84231 | 11.58211 | 21990 ft | 463 kts | 330° |
| 2026-05-06 11:07 | 42.87142 | 11.56319 | 21472 ft | 462 kts | 330° |
| 2026-05-06 11:08 | 42.90047 | 11.54427 | 20363 ft | 462 kts | 330° |
| 2026-05-06 11:08 | 42.92919 | 11.52549 | 19478 ft | 456 kts | 330° |
| 2026-05-06 11:08 | 42.95758 | 11.50652 | 18688 ft | 450 kts | 329° |
| 2026-05-06 11:08 | 42.98521 | 11.48701 | 17856 ft | 445 kts | 328° |
| 2026-05-06 11:09 | 43.01226 | 11.46709 | 16992 ft | 439 kts | 327° |
| 2026-05-06 11:09 | 43.03891 | 11.44705 | 16179 ft | 434 kts | 327° |
| 2026-05-06 11:09 | 43.06524 | 11.42713 | 15394 ft | 429 kts | 327° |
| 2026-05-06 11:09 | 43.09126 | 11.40750 | 14631 ft | 425 kts | 327° |
| 2026-05-06 11:10 | 43.11712 | 11.38810 | 13917 ft | 421 kts | 327° |
| 2026-05-06 11:10 | 43.14275 | 11.36906 | 13286 ft | 415 kts | 328° |
| 2026-05-06 11:10 | 43.16738 | 11.35092 | 13093 ft | 387 kts | 328° |
| 2026-05-06 11:10 | 43.19046 | 11.33402 | 12612 ft | 366 kts | 328° |
| 2026-05-06 11:11 | 43.21253 | 11.31779 | 11874 ft | 355 kts | 327° |
| 2026-05-06 11:11 | 43.23407 | 11.30181 | 11103 ft | 350 kts | 327° |
| 2026-05-06 11:11 | 43.25545 | 11.28586 | 10971 ft | 351 kts | 327° |
| 2026-05-06 11:11 | 43.27654 | 11.27011 | 10861 ft | 338 kts | 327° |
| 2026-05-06 11:12 | 43.29678 | 11.25504 | 10732 ft | 323 kts | 327° |
| 2026-05-06 11:12 | 43.31623 | 11.24056 | 10408 ft | 315 kts | 327° |
| 2026-05-06 11:12 | 43.32893 | 11.23110 | 10079 ft | 312 kts | 327° |
| 2026-05-06 11:12 | 43.34796 | 11.21691 | 9528 ft | 310 kts | 327° |
| 2026-05-06 11:13 | 43.36687 | 11.20274 | 9030 ft | 311 kts | 327° |
| 2026-05-06 11:13 | 43.38590 | 11.18844 | 8505 ft | 310 kts | 327° |
| 2026-05-06 11:13 | 43.40476 | 11.17430 | 8009 ft | 307 kts | 327° |
| 2026-05-06 11:13 | 43.42340 | 11.16036 | 7594 ft | 299 kts | 327° |
| 2026-05-06 11:14 | 43.44206 | 11.14853 | 7231 ft | 294 kts | 339° |
| 2026-05-06 11:14 | 43.46142 | 11.14114 | 6852 ft | 283 kts | 341° |
| 2026-05-06 11:14 | 43.47997 | 11.13411 | 6489 ft | 271 kts | 341° |
| 2026-05-06 11:14 | 43.49786 | 11.12732 | 6114 ft | 261 kts | 341° |
| 2026-05-06 11:15 | 43.51507 | 11.12076 | 5753 ft | 252 kts | 340° |
| 2026-05-06 11:15 | 43.53161 | 11.11442 | 5422 ft | 242 kts | 340° |
| 2026-05-06 11:15 | 43.54736 | 11.10835 | 5102 ft | 234 kts | 340° |
| 2026-05-06 11:15 | 43.56296 | 11.10233 | 4796 ft | 233 kts | 340° |
| 2026-05-06 11:16 | 43.57859 | 11.09631 | 4471 ft | 232 kts | 340° |
| 2026-05-06 11:16 | 43.59409 | 11.09036 | 4163 ft | 230 kts | 340° |
| 2026-05-06 11:16 | 43.60951 | 11.08444 | 3856 ft | 230 kts | 340° |
| 2026-05-06 11:16 | 43.62492 | 11.07854 | 3561 ft | 230 kts | 341° |
| 2026-05-06 11:17 | 43.64029 | 11.07265 | 3259 ft | 229 kts | 341° |
| 2026-05-06 11:17 | 43.65550 | 11.06683 | 3037 ft | 223 kts | 340° |
| 2026-05-06 11:17 | 43.67005 | 11.06126 | 2992 ft | 212 kts | 341° |
| 2026-05-06 11:17 | 43.68406 | 11.05591 | 3001 ft | 206 kts | 340° |
| 2026-05-06 11:18 | 43.69815 | 11.05404 | 2950 ft | 200 kts | 1° |
| 2026-05-06 11:18 | 43.71146 | 11.05902 | 2740 ft | 197 kts | 25° |
| 2026-05-06 11:18 | 43.72240 | 11.07003 | 2524 ft | 193 kts | 48° |
| 2026-05-06 11:18 | 43.73124 | 11.08361 | 2315 ft | 186 kts | 49° |
| 2026-05-06 11:19 | 43.73976 | 11.09670 | 2061 ft | 179 kts | 51° |
| 2026-05-06 11:19 | 43.74788 | 11.10917 | 1812 ft | 168 kts | 52° |
| 2026-05-06 11:19 | 43.75548 | 11.12088 | 1600 ft | 159 kts | 51° |
| 2026-05-06 11:19 | 43.76277 | 11.13215 | 1369 ft | 156 kts | 49° |
| 2026-05-06 11:20 | 43.76982 | 11.14305 | 1190 ft | 147 kts | 51° |
| 2026-05-06 11:20 | 43.77655 | 11.15345 | 998 ft | 144 kts | 51° |
| 2026-05-06 11:20 | 43.78319 | 11.16377 | 833 ft | 151 kts | 51° |
| 2026-05-06 11:20 | 43.79026 | 11.17500 | 1497 ft | 157 kts | 53° |
| 2026-05-06 11:21 | 43.79744 | 11.18722 | 2023 ft | 172 kts | 62° |
| 2026-05-06 11:21 | 43.79959 | 11.20379 | 2405 ft | 184 kts | 101° |
| 2026-05-06 11:21 | 43.79393 | 11.22021 | 2711 ft | 198 kts | 140° |
| 2026-05-06 11:21 | 43.78174 | 11.22871 | 2906 ft | 207 kts | 176° |
| 2026-05-06 11:22 | 43.76624 | 11.22989 | 3003 ft | 233 kts | 179° |
| 2026-05-06 11:22 | 43.74989 | 11.23173 | 3009 ft | 237 kts | 177° |
| 2026-05-06 11:22 | 43.73351 | 11.23401 | 3006 ft | 236 kts | 177° |
| 2026-05-06 11:22 | 43.71709 | 11.23638 | 3011 ft | 238 kts | 177° |
| 2026-05-06 11:23 | 43.70096 | 11.23649 | 3000 ft | 227 kts | 195° |
| 2026-05-06 11:23 | 43.68715 | 11.22672 | 3007 ft | 225 kts | 217° |
| 2026-05-06 11:23 | 43.67490 | 11.21333 | 3003 ft | 224 kts | 219° |
| 2026-05-06 11:23 | 43.66422 | 11.19857 | 3001 ft | 214 kts | 228° |
| 2026-05-06 11:24 | 43.65446 | 11.18288 | 3003 ft | 216 kts | 229° |
| 2026-05-06 11:24 | 43.64499 | 11.16673 | 3000 ft | 216 kts | 234° |
| 2026-05-06 11:24 | 43.64056 | 11.14709 | 3006 ft | 220 kts | 263° |
| 2026-05-06 11:24 | 43.64071 | 11.12620 | 3009 ft | 221 kts | 268° |
| 2026-05-06 11:25 | 43.64146 | 11.10511 | 3008 ft | 219 kts | 269° |
| 2026-05-06 11:25 | 43.64232 | 11.08452 | 2993 ft | 207 kts | 272° |
| 2026-05-06 11:25 | 43.64792 | 11.06636 | 2996 ft | 214 kts | 307° |
| 2026-05-06 11:25 | 43.66044 | 11.05463 | 3006 ft | 222 kts | 331° |
| 2026-05-06 11:26 | 43.67542 | 11.04928 | 3007 ft | 224 kts | 354° |
| 2026-05-06 11:26 | 43.69072 | 11.04835 | 3014 ft | 218 kts | 356° |
| 2026-05-06 11:26 | 43.70568 | 11.05218 | 2901 ft | 221 kts | 20° |
| 2026-05-06 11:26 | 43.71814 | 11.06354 | 2651 ft | 210 kts | 46° |
| 2026-05-06 11:27 | 43.72769 | 11.07809 | 2399 ft | 197 kts | 50° |
| 2026-05-06 11:27 | 43.73653 | 11.09170 | 2155 ft | 182 kts | 51° |
| 2026-05-06 11:27 | 43.74461 | 11.10412 | 1918 ft | 166 kts | 51° |
| 2026-05-06 11:27 | 43.75211 | 11.11570 | 1728 ft | 158 kts | 52° |
| 2026-05-06 11:28 | 43.75930 | 11.12680 | 1545 ft | 152 kts | 52° |
| 2026-05-06 11:28 | 43.76634 | 11.13758 | 1251 ft | 150 kts | 51° |
| 2026-05-06 11:28 | 43.77319 | 11.14810 | 1081 ft | 145 kts | 51° |
| 2026-05-06 11:28 | 43.77995 | 11.15855 | 902 ft | 145 kts | 52° |
| 2026-05-06 11:29 | 43.78674 | 11.16903 | 710 ft | 150 kts | 52° |
| 2026-05-06 11:29 | 43.79403 | 11.18077 | 1214 ft | 167 kts | 57° |
| 2026-05-06 11:29 | 43.79610 | 11.19664 | 1777 ft | 179 kts | 109° |
| 2026-05-06 11:29 | 43.78959 | 11.21194 | 2266 ft | 193 kts | 142° |
| 2026-05-06 11:30 | 43.77730 | 11.21984 | 2717 ft | 205 kts | 173° |
| 2026-05-06 11:30 | 43.76250 | 11.22275 | 3190 ft | 230 kts | 176° |
| 2026-05-06 11:30 | 43.74590 | 11.22548 | 3884 ft | 248 kts | 176° |
| 2026-05-06 11:30 | 43.72860 | 11.22824 | 4874 ft | 253 kts | 177° |
| 2026-05-06 11:31 | 43.71086 | 11.22878 | 5630 ft | 256 kts | 194° |
| 2026-05-06 11:31 | 43.69491 | 11.21889 | 5888 ft | 252 kts | 221° |
| 2026-05-06 11:31 | 43.68434 | 11.19985 | 5974 ft | 252 kts | 241° |
| 2026-05-06 11:31 | 43.67665 | 11.17812 | 5981 ft | 252 kts | 244° |
| 2026-05-06 11:32 | 43.66918 | 11.15619 | 5983 ft | 252 kts | 244° |
| 2026-05-06 11:32 | 43.66176 | 11.13426 | 5984 ft | 252 kts | 244° |
| 2026-05-06 11:32 | 43.65442 | 11.11224 | 5986 ft | 252 kts | 244° |
| 2026-05-06 11:32 | 43.64713 | 11.09033 | 5984 ft | 247 kts | 244° |
| 2026-05-06 11:33 | 43.64008 | 11.06910 | 5989 ft | 242 kts | 244° |
| 2026-05-06 11:33 | 43.63306 | 11.04796 | 5988 ft | 242 kts | 244° |
| 2026-05-06 11:33 | 43.62604 | 11.02685 | 5991 ft | 242 kts | 244° |
| 2026-05-06 11:33 | 43.61924 | 11.00637 | 5991 ft | 227 kts | 244° |
| 2026-05-06 11:34 | 43.61291 | 10.98694 | 5992 ft | 221 kts | 246° |
| 2026-05-06 11:34 | 43.60842 | 10.96660 | 5992 ft | 222 kts | 253° |
| 2026-05-06 11:34 | 43.60468 | 10.94591 | 5993 ft | 222 kts | 254° |
| 2026-05-06 11:34 | 43.60097 | 10.92533 | 5992 ft | 222 kts | 254° |
| 2026-05-06 11:35 | 43.59729 | 10.90472 | 5997 ft | 220 kts | 254° |
| 2026-05-06 11:35 | 43.59361 | 10.88414 | 5995 ft | 221 kts | 254° |
| 2026-05-06 11:35 | 43.58986 | 10.86349 | 5996 ft | 222 kts | 254° |
| 2026-05-06 11:35 | 43.58686 | 10.84272 | 5788 ft | 221 kts | 264° |
| 2026-05-06 11:36 | 43.58688 | 10.82144 | 5384 ft | 225 kts | 269° |
| 2026-05-06 11:36 | 43.58737 | 10.79927 | 5035 ft | 237 kts | 269° |
| 2026-05-06 11:36 | 43.58872 | 10.77628 | 4999 ft | 243 kts | 274° |
| 2026-05-06 11:36 | 43.59100 | 10.75304 | 5002 ft | 245 kts | 275° |
| 2026-05-06 11:37 | 43.59355 | 10.72980 | 5001 ft | 245 kts | 275° |
| 2026-05-06 11:37 | 43.59611 | 10.70686 | 5003 ft | 245 kts | 275° |
| 2026-05-06 11:37 | 43.59870 | 10.68333 | 5002 ft | 245 kts | 275° |
| 2026-05-06 11:37 | 43.60117 | 10.66032 | 5003 ft | 245 kts | 275° |
| 2026-05-06 11:38 | 43.60366 | 10.63706 | 5004 ft | 245 kts | 275° |
| 2026-05-06 11:38 | 43.60613 | 10.61384 | 5004 ft | 245 kts | 275° |
| 2026-05-06 11:38 | 43.60857 | 10.59070 | 5000 ft | 238 kts | 275° |
| 2026-05-06 11:38 | 43.61246 | 10.56893 | 5004 ft | 235 kts | 291° |
| 2026-05-06 11:39 | 43.62251 | 10.55100 | 5008 ft | 242 kts | 317° |
| 2026-05-06 11:39 | 43.63777 | 10.54079 | 5010 ft | 250 kts | 344° |
| 2026-05-06 11:39 | 43.65530 | 10.54138 | 5006 ft | 258 kts | 14° |
| 2026-05-06 11:39 | 43.67112 | 10.55315 | 5006 ft | 260 kts | 36° |
| 2026-05-06 11:40 | 43.68545 | 10.56815 | 5007 ft | 258 kts | 36° |
| 2026-05-06 11:40 | 43.69973 | 10.58309 | 5009 ft | 257 kts | 36° |
| 2026-05-06 11:40 | 43.71405 | 10.59801 | 5007 ft | 258 kts | 36° |
| 2026-05-06 11:40 | 43.72836 | 10.61288 | 5006 ft | 258 kts | 36° |
| 2026-05-06 11:41 | 43.74271 | 10.62780 | 5006 ft | 258 kts | 36° |
| 2026-05-06 11:41 | 43.75705 | 10.64270 | 5003 ft | 258 kts | 36° |
| 2026-05-06 11:41 | 43.77253 | 10.65490 | 5004 ft | 255 kts | 17° |
| 2026-05-06 11:41 | 43.78957 | 10.65935 | 5001 ft | 242 kts | 356° |
| 2026-05-06 11:42 | 43.80549 | 10.65658 | 4941 ft | 223 kts | 339° |
| 2026-05-06 11:42 | 43.81920 | 10.64811 | 4809 ft | 208 kts | 321° |
| 2026-05-06 11:42 | 43.82989 | 10.63589 | 4658 ft | 192 kts | 307° |
| 2026-05-06 11:42 | 43.83874 | 10.62267 | 4539 ft | 182 kts | 307° |
| 2026-05-06 11:43 | 43.84721 | 10.61020 | 4429 ft | 173 kts | 307° |
| 2026-05-06 11:43 | 43.85523 | 10.59841 | 4328 ft | 164 kts | 307° |
| 2026-05-06 11:43 | 43.86248 | 10.58689 | 4224 ft | 151 kts | 295° |
| 2026-05-06 11:44 | 43.86700 | 10.56063 | 4080 ft | 155 kts | 261° |
| 2026-05-06 11:44 | 43.86381 | 10.54577 | 3979 ft | 165 kts | 242° |
| 2026-05-06 11:44 | 43.85695 | 10.53286 | 3866 ft | 167 kts | 231° |
| 2026-05-06 11:44 | 43.84958 | 10.52042 | 3773 ft | 166 kts | 231° |
| 2026-05-06 11:45 | 43.84229 | 10.50805 | 3673 ft | 166 kts | 232° |
| 2026-05-06 11:45 | 43.83391 | 10.49753 | 3559 ft | 158 kts | 214° |
| 2026-05-06 11:45 | 43.82430 | 10.49126 | 3306 ft | 144 kts | 208° |
| 2026-05-06 11:45 | 43.81561 | 10.48583 | 3079 ft | 133 kts | 208° |
| 2026-05-06 11:46 | 43.80741 | 10.48067 | 2869 ft | 128 kts | 208° |
| 2026-05-06 11:46 | 43.79919 | 10.47547 | 2684 ft | 130 kts | 209° |
| 2026-05-06 11:46 | 43.79108 | 10.47035 | 2483 ft | 127 kts | 207° |
| 2026-05-06 11:46 | 43.78315 | 10.46534 | 2289 ft | 125 kts | 207° |
| 2026-05-06 11:47 | 43.77526 | 10.46035 | 2080 ft | 124 kts | 207° |
| 2026-05-06 11:47 | 43.76736 | 10.45536 | 1889 ft | 125 kts | 207° |
| 2026-05-06 11:47 | 43.75947 | 10.45039 | 1689 ft | 125 kts | 207° |
| 2026-05-06 11:47 | 43.75150 | 10.44536 | 1494 ft | 125 kts | 208° |
| 2026-05-06 11:48 | 43.74364 | 10.44041 | 1306 ft | 124 kts | 208° |
| 2026-05-06 11:48 | 43.73566 | 10.43539 | 1109 ft | 127 kts | 205° |
| 2026-05-06 11:48 | 43.72773 | 10.43040 | 933 ft | 126 kts | 204° |
| 2026-05-06 11:48 | 43.71986 | 10.42545 | 734 ft | 123 kts | 205° |
| 2026-05-06 11:49 | 43.71214 | 10.42058 | 559 ft | 121 kts | 204° |
| 2026-05-06 11:49 | 43.70445 | 10.41541 | 369 ft | 122 kts | 213° |
| 2026-05-06 11:49 | 43.69759 | 10.40844 | 193 ft | 122 kts | 214° |
| 2026-05-06 11:49 | 43.69085 | 10.40155 | 37 ft | 119 kts | 215° |
| 2026-05-06 11:50 | 43.68521 | 10.39574 | 19 ft | 79 kts | 217° |
| 2026-05-06 11:50 | 43.68245 | 10.39293 | 18 ft | 33 kts | 216° |
| 2026-05-06 11:50 | 43.68146 | 10.39105 | 18 ft | 19 kts | 308° |
| 2026-05-06 11:50 | 43.68241 | 10.38977 | 14 ft | 20 kts | 355° |
| 2026-05-06 11:51 | 43.68351 | 10.39072 | 16 ft | 19 kts | 37° |
| 2026-05-06 11:51 | 43.68483 | 10.39207 | 17 ft | 29 kts | 35° |
| 2026-05-06 11:51 | 43.68647 | 10.39370 | 18 ft | 30 kts | 37° |
| 2026-05-06 11:51 | 43.68834 | 10.39561 | 18 ft | 44 kts | 37° |
| 2026-05-06 11:52 | 43.69079 | 10.39818 | 20 ft | 40 kts | 37° |
| 2026-05-06 11:52 | 43.69282 | 10.39910 | 19 ft | 30 kts | 353° |
| 2026-05-06 11:52 | 43.69456 | 10.39865 | 18 ft | 21 kts | 320° |
| 2026-05-06 11:52 | 43.69521 | 10.39771 | 15 ft | 9 kts | 8° |
| 2026-05-06 11:53 | 43.69601 | 10.39775 | 18 ft | 6 kts | 318° |
| 2026-05-06 11:53 | 43.69609 | 10.39707 | 15 ft | 5 kts | 282° |
| 2026-05-06 11:53 | 43.69619 | 10.39700 | 17 ft | 0 kts | 334° |